createdAt,value
2017-08-23T00:00:25.576Z,15.7
2017-08-23T00:01:28.092Z,15.6
2017-08-23T00:02:31.659Z,15.6
2017-08-23T00:03:34.482Z,15.7
2017-08-23T00:04:37.322Z,15.7
2017-08-23T00:05:40.149Z,15.7
2017-08-23T00:06:42.985Z,15.7
2017-08-23T00:07:45.485Z,15.7
2017-08-23T00:08:48.311Z,15.7
2017-08-23T00:09:51.516Z,15.6
2017-08-23T00:10:54.201Z,15.6
2017-08-23T00:11:57.031Z,15.6
2017-08-23T00:12:59.875Z,15.6
2017-08-23T00:14:02.729Z,15.6
2017-08-23T00:15:05.916Z,15.6
2017-08-23T00:16:08.763Z,15.5
2017-08-23T00:17:11.269Z,15.5
2017-08-23T00:18:14.101Z,15.5
2017-08-23T00:19:16.603Z,15.6
2017-08-23T00:20:19.104Z,15.6
2017-08-23T00:21:21.960Z,15.5
2017-08-23T00:22:24.485Z,15.6
2017-08-23T00:23:26.992Z,15.5
2017-08-23T00:24:29.830Z,15.6
2017-08-23T00:25:32.313Z,15.6
2017-08-23T00:26:36.057Z,15.6
2017-08-23T00:27:39.063Z,15.6
2017-08-23T00:28:41.579Z,15.6
2017-08-23T00:29:44.091Z,15.6
2017-08-23T00:30:46.588Z,15.6
2017-08-23T00:31:49.084Z,15.6
2017-08-23T00:32:51.588Z,15.6
2017-08-23T00:33:54.432Z,15.5
2017-08-23T00:34:57.252Z,15.6
2017-08-23T00:36:00.089Z,15.6
2017-08-23T00:37:03.267Z,15.5
2017-08-23T00:38:05.799Z,15.5
2017-08-23T00:39:08.298Z,15.5
2017-08-23T00:40:10.799Z,15.5
2017-08-23T00:41:13.356Z,15.5
2017-08-23T00:42:16.820Z,15.5
2017-08-23T00:43:19.672Z,15.5
2017-08-23T00:44:22.711Z,15.5
2017-08-23T00:45:26.232Z,15.5
2017-08-23T00:46:29.601Z,15.5
2017-08-23T00:47:32.423Z,15.5
2017-08-23T00:48:35.498Z,15.5
2017-08-23T00:49:38.568Z,15.5
2017-08-23T00:50:41.224Z,15.4
2017-08-23T00:51:43.725Z,15.4
2017-08-23T00:52:46.898Z,15.4
2017-08-23T00:53:50.069Z,15.4
2017-08-23T00:54:52.896Z,15.4
2017-08-23T00:55:55.409Z,15.4
2017-08-23T00:56:57.904Z,15.4
2017-08-23T00:58:00.407Z,15.4
2017-08-23T00:59:03.936Z,15.4
2017-08-23T01:00:07.127Z,15.4
2017-08-23T01:01:09.963Z,15.4
2017-08-23T01:02:12.468Z,15.4
2017-08-23T01:03:14.959Z,15.4
2017-08-23T01:04:17.800Z,15.3
2017-08-23T01:05:20.640Z,15.4
2017-08-23T01:06:23.141Z,15.3
2017-08-23T01:07:25.646Z,15.4
2017-08-23T01:08:28.476Z,15.4
2017-08-23T01:09:30.986Z,15.3
2017-08-23T01:10:33.477Z,15.3
2017-08-23T01:11:35.994Z,15.3
2017-08-23T01:12:38.502Z,15.3
2017-08-23T01:13:41.709Z,15.3
2017-08-23T01:14:44.545Z,15.3
2017-08-23T01:15:47.374Z,15.3
2017-08-23T01:16:49.885Z,15.2
2017-08-23T01:17:52.387Z,15.3
2017-08-23T01:18:54.879Z,15.3
2017-08-23T01:19:57.718Z,15.2
2017-08-23T01:21:00.213Z,15.2
2017-08-23T01:22:03.054Z,15.2
2017-08-23T01:23:05.916Z,15.2
2017-08-23T01:24:09.110Z,15.2
2017-08-23T01:25:11.944Z,15.2
2017-08-23T01:26:14.432Z,15.2
2017-08-23T01:27:16.956Z,15.2
2017-08-23T01:28:19.463Z,15.2
2017-08-23T01:29:21.958Z,15.2
2017-08-23T01:30:24.794Z,15.1
2017-08-23T01:31:27.289Z,15.1
2017-08-23T01:32:29.783Z,15.1
2017-08-23T01:33:32.289Z,15.1
2017-08-23T01:34:34.769Z,15.1
2017-08-23T01:35:37.280Z,15.1
2017-08-23T01:36:39.814Z,15.1
2017-08-23T01:37:42.331Z,15.1
2017-08-23T01:38:44.829Z,15.1
2017-08-23T01:39:47.656Z,15.1
2017-08-23T01:40:50.486Z,15.1
2017-08-23T01:41:53.353Z,15.1
2017-08-23T01:42:55.845Z,15.1
2017-08-23T01:43:58.340Z,15.1
2017-08-23T01:45:00.844Z,15.1
2017-08-23T01:46:03.686Z,15.2
2017-08-23T01:47:06.196Z,15.2
2017-08-23T01:48:09.057Z,15.2
2017-08-23T01:49:12.233Z,15.2
2017-08-23T01:50:15.418Z,15.1
2017-08-23T01:51:18.598Z,15.2
2017-08-23T01:52:21.767Z,15.2
2017-08-23T01:53:24.274Z,15.1
2017-08-23T01:54:27.118Z,15.1
2017-08-23T01:55:30.287Z,15.1
2017-08-23T01:56:33.149Z,15.1
2017-08-23T01:57:36.323Z,15.1
2017-08-23T01:58:38.814Z,15.1
2017-08-23T01:59:41.334Z,15.1
2017-08-23T02:00:44.827Z,15.1
2017-08-23T02:01:47.323Z,15
2017-08-23T02:02:50.164Z,15.1
2017-08-23T02:03:53.013Z,15.1
2017-08-23T02:04:55.534Z,15
2017-08-23T02:05:58.731Z,15
2017-08-23T02:07:02.240Z,15.1
2017-08-23T02:08:05.763Z,15
2017-08-23T02:09:08.603Z,15
2017-08-23T02:10:11.097Z,15
2017-08-23T02:11:14.615Z,15
2017-08-23T02:12:17.113Z,14.9
2017-08-23T02:13:19.612Z,15
2017-08-23T02:14:22.126Z,15
2017-08-23T02:15:24.624Z,14.9
2017-08-23T02:16:27.462Z,14.9
2017-08-23T02:17:29.973Z,14.9
2017-08-23T02:18:32.795Z,14.9
2017-08-23T02:19:35.291Z,14.9
2017-08-23T02:20:37.789Z,14.9
2017-08-23T02:21:40.623Z,14.9
2017-08-23T02:22:43.448Z,14.9
2017-08-23T02:23:45.937Z,15
2017-08-23T02:24:48.460Z,15
2017-08-23T02:25:50.948Z,15
2017-08-23T02:26:54.461Z,15
2017-08-23T02:27:56.949Z,15
2017-08-23T02:28:59.441Z,15
2017-08-23T02:30:01.965Z,15
2017-08-23T02:31:05.518Z,15
2017-08-23T02:32:08.015Z,15
2017-08-23T02:33:10.531Z,15
2017-08-23T02:34:13.362Z,15
2017-08-23T02:35:16.905Z,15
2017-08-23T02:36:19.746Z,15
2017-08-23T02:37:22.589Z,15
2017-08-23T02:38:25.086Z,15.1
2017-08-23T02:39:27.935Z,15.1
2017-08-23T02:40:30.777Z,15.1
2017-08-23T02:41:33.960Z,15.1
2017-08-23T02:42:36.803Z,15.1
2017-08-23T02:43:39.680Z,15
2017-08-23T02:44:42.525Z,15
2017-08-23T02:45:45.029Z,15
2017-08-23T02:46:47.508Z,15
2017-08-23T02:47:51.041Z,15
2017-08-23T02:48:53.548Z,15
2017-08-23T02:49:56.418Z,15
2017-08-23T02:50:59.597Z,15
2017-08-23T02:52:03.106Z,15
2017-08-23T02:53:05.603Z,15
2017-08-23T02:54:08.463Z,15
2017-08-23T02:55:10.960Z,15
2017-08-23T02:56:13.465Z,15
2017-08-23T02:57:15.969Z,15
2017-08-23T02:58:18.788Z,15
2017-08-23T02:59:21.318Z,15
2017-08-23T03:00:23.823Z,15
2017-08-23T03:01:26.341Z,15
2017-08-23T03:02:29.211Z,15
2017-08-23T03:03:32.382Z,15
2017-08-23T03:04:34.875Z,15
2017-08-23T03:05:37.385Z,15
2017-08-23T03:06:39.875Z,15
2017-08-23T03:07:42.403Z,15
2017-08-23T03:08:45.246Z,15
2017-08-23T03:09:47.751Z,15.1
2017-08-23T03:10:50.262Z,15
2017-08-23T03:11:52.757Z,15.1
2017-08-23T03:12:55.244Z,15.1
2017-08-23T03:13:57.755Z,15.1
2017-08-23T03:15:00.266Z,15.1
2017-08-23T03:16:02.765Z,15.1
2017-08-23T03:17:05.271Z,15.2
2017-08-23T03:18:07.774Z,15.2
2017-08-23T03:19:10.267Z,15.2
2017-08-23T03:20:12.776Z,15.2
2017-08-23T03:21:15.598Z,15.2
2017-08-23T03:22:18.443Z,15.2
2017-08-23T03:23:20.937Z,15.2
2017-08-23T03:24:23.448Z,15.2
2017-08-23T03:25:25.982Z,15.2
2017-08-23T03:26:28.842Z,15.2
2017-08-23T03:27:31.692Z,15.1
2017-08-23T03:28:34.551Z,15.2
2017-08-23T03:29:37.057Z,15.2
2017-08-23T03:30:39.569Z,15.1
2017-08-23T03:31:42.085Z,15.1
2017-08-23T03:32:44.927Z,15.2
2017-08-23T03:33:47.440Z,15.1
2017-08-23T03:34:49.952Z,15.2
2017-08-23T03:35:52.456Z,15.1
2017-08-23T03:36:55.307Z,15.2
2017-08-23T03:37:57.796Z,15.1
2017-08-23T03:39:00.299Z,15.1
2017-08-23T03:40:03.141Z,15.1
2017-08-23T03:41:05.649Z,15.1
2017-08-23T03:42:08.151Z,15.1
2017-08-23T03:43:10.653Z,15.1
2017-08-23T03:44:13.490Z,15.1
2017-08-23T03:45:16.001Z,15.1
2017-08-23T03:46:18.807Z,15
2017-08-23T03:47:21.651Z,15.1
2017-08-23T03:48:24.832Z,15
2017-08-23T03:49:28.008Z,15
2017-08-23T03:50:31.191Z,15
2017-08-23T03:51:34.367Z,15
2017-08-23T03:52:37.204Z,15
2017-08-23T03:53:40.060Z,15
2017-08-23T03:54:43.577Z,14.9
2017-08-23T03:55:46.761Z,14.9
2017-08-23T03:56:49.931Z,15
2017-08-23T03:57:52.771Z,15
2017-08-23T03:58:55.276Z,15
2017-08-23T03:59:58.455Z,15
2017-08-23T04:01:01.286Z,15
2017-08-23T04:02:04.825Z,15
2017-08-23T04:03:07.310Z,15
2017-08-23T04:04:09.813Z,15.1
2017-08-23T04:05:12.342Z,15.1
2017-08-23T04:06:14.846Z,15.1
2017-08-23T04:07:17.690Z,15.1
2017-08-23T04:08:20.193Z,15.1
2017-08-23T04:09:22.696Z,15.1
2017-08-23T04:10:25.208Z,15.1
2017-08-23T04:11:27.707Z,15.2
2017-08-23T04:12:30.211Z,15.2
2017-08-23T04:13:32.685Z,15.2
2017-08-23T04:14:35.533Z,15.2
2017-08-23T04:15:38.369Z,15.2
2017-08-23T04:16:40.863Z,15.2
2017-08-23T04:17:44.052Z,15.2
2017-08-23T04:18:46.557Z,15.2
2017-08-23T04:19:49.390Z,15.2
2017-08-23T04:20:52.230Z,15.2
2017-08-23T04:21:55.438Z,15.2
2017-08-23T04:22:57.932Z,15.2
2017-08-23T04:24:00.433Z,15.2
2017-08-23T04:25:03.291Z,15.2
2017-08-23T04:26:06.136Z,15.2
2017-08-23T04:27:08.963Z,15.2
2017-08-23T04:28:11.816Z,15.2
2017-08-23T04:29:14.322Z,15.2
2017-08-23T04:30:16.831Z,15.1
2017-08-23T04:31:19.671Z,15.1
2017-08-23T04:32:22.156Z,15.1
2017-08-23T04:33:24.997Z,15.1
2017-08-23T04:34:28.211Z,15.1
2017-08-23T04:35:31.058Z,15.1
2017-08-23T04:36:33.580Z,15.1
2017-08-23T04:37:36.422Z,15
2017-08-23T04:38:39.250Z,15
2017-08-23T04:39:41.761Z,15
2017-08-23T04:40:44.262Z,15
2017-08-23T04:41:48.127Z,15
2017-08-23T04:42:50.626Z,15
2017-08-23T04:43:54.153Z,15
2017-08-23T04:44:57.013Z,15
2017-08-23T04:45:59.869Z,15
2017-08-23T04:47:03.041Z,15
2017-08-23T04:48:06.556Z,15
2017-08-23T04:49:09.388Z,15
2017-08-23T04:50:12.232Z,15
2017-08-23T04:51:14.729Z,15
2017-08-23T04:52:17.224Z,15.1
2017-08-23T04:53:20.406Z,15.1
2017-08-23T04:54:22.905Z,15.1
2017-08-23T04:55:26.097Z,15.1
2017-08-23T04:56:28.632Z,15.1
2017-08-23T04:57:31.131Z,15.1
2017-08-23T04:58:33.985Z,15.1
2017-08-23T04:59:36.839Z,15.1
2017-08-23T05:00:39.668Z,15.1
2017-08-23T05:01:42.164Z,15.1
2017-08-23T05:02:45.345Z,15.1
2017-08-23T05:03:48.176Z,15.1
2017-08-23T05:04:51.360Z,15.1
2017-08-23T05:05:54.543Z,15.1
2017-08-23T05:06:57.048Z,15.1
2017-08-23T05:08:00.566Z,15.1
2017-08-23T05:09:03.065Z,15.2
2017-08-23T05:10:05.900Z,15.2
2017-08-23T05:11:09.141Z,15.2
2017-08-23T05:12:11.643Z,15.2
2017-08-23T05:13:14.470Z,15.2
2017-08-23T05:14:17.307Z,15.2
2017-08-23T05:15:19.800Z,15.3
2017-08-23T05:16:22.651Z,15.3
2017-08-23T05:17:26.512Z,15.3
2017-08-23T05:18:29.352Z,15.4
2017-08-23T05:19:31.841Z,15.4
2017-08-23T05:20:34.711Z,15.4
2017-08-23T05:21:37.559Z,15.4
2017-08-23T05:22:40.061Z,15.5
2017-08-23T05:23:42.924Z,15.5
2017-08-23T05:24:45.426Z,15.6
2017-08-23T05:25:47.924Z,15.6
2017-08-23T05:26:51.076Z,15.6
2017-08-23T05:27:54.264Z,15.7
2017-08-23T05:28:57.418Z,15.7
2017-08-23T05:30:00.259Z,15.8
2017-08-23T05:31:03.106Z,15.8
2017-08-23T05:32:05.958Z,15.8
2017-08-23T05:33:08.789Z,15.8
2017-08-23T05:34:11.314Z,15.9
2017-08-23T05:35:13.809Z,15.9
2017-08-23T05:36:16.320Z,15.9
2017-08-23T05:37:18.822Z,15.9
2017-08-23T05:38:21.332Z,16
2017-08-23T05:39:24.168Z,16
2017-08-23T05:40:27.033Z,16
2017-08-23T05:41:29.530Z,16
2017-08-23T05:42:33.050Z,16.1
2017-08-23T05:43:35.883Z,16.1
2017-08-23T05:44:38.387Z,16.1
2017-08-23T05:45:41.271Z,16.1
2017-08-23T05:46:44.116Z,16.1
2017-08-23T05:47:46.624Z,16.2
2017-08-23T05:48:49.467Z,16.2
2017-08-23T05:49:52.300Z,16.2
2017-08-23T05:50:55.142Z,16.3
2017-08-23T05:51:57.635Z,16.3
2017-08-23T05:53:00.815Z,16.3
2017-08-23T05:54:03.664Z,16.3
2017-08-23T05:55:06.221Z,16.4
2017-08-23T05:56:08.735Z,16.4
2017-08-23T05:57:11.247Z,16.4
2017-08-23T05:58:14.086Z,16.4
2017-08-23T05:59:16.581Z,16.4
2017-08-23T06:00:19.437Z,16.5
2017-08-23T06:01:21.964Z,16.5
2017-08-23T06:02:25.146Z,16.5
2017-08-23T06:03:28.000Z,16.5
2017-08-23T06:04:30.835Z,16.5
2017-08-23T06:05:33.380Z,16.5
2017-08-23T06:06:35.875Z,16.5
2017-08-23T06:07:38.725Z,16.5
2017-08-23T06:08:41.217Z,16.5
2017-08-23T06:09:44.080Z,16.6
2017-08-23T06:10:46.924Z,16.6
2017-08-23T06:11:49.758Z,16.6
2017-08-23T06:12:52.599Z,16.6
2017-08-23T06:13:55.442Z,16.7
2017-08-23T06:14:57.948Z,16.7
2017-08-23T06:16:01.160Z,16.7
2017-08-23T06:17:04.666Z,16.8
2017-08-23T06:18:07.176Z,16.8
2017-08-23T06:19:10.733Z,16.8
2017-08-23T06:20:13.241Z,16.9
2017-08-23T06:21:15.752Z,16.9
2017-08-23T06:22:18.603Z,17
2017-08-23T06:23:21.787Z,17
2017-08-23T06:24:24.650Z,17.1
2017-08-23T06:25:27.139Z,17.1
2017-08-23T06:26:29.984Z,17.2
2017-08-23T06:27:32.493Z,17.2
2017-08-23T06:28:35.011Z,17.2
2017-08-23T06:29:37.517Z,17.2
2017-08-23T06:30:40.023Z,17.3
2017-08-23T06:31:42.861Z,17.3
2017-08-23T06:32:46.421Z,17.4
2017-08-23T06:33:49.944Z,17.4
2017-08-23T06:34:52.828Z,17.4
2017-08-23T06:35:55.994Z,17.5
2017-08-23T06:36:58.532Z,17.5
2017-08-23T06:38:01.373Z,17.6
2017-08-23T06:39:04.556Z,17.6
2017-08-23T06:40:07.405Z,17.6
2017-08-23T06:41:09.904Z,17.7
2017-08-23T06:42:12.751Z,17.7
2017-08-23T06:43:15.601Z,17.7
2017-08-23T06:44:18.102Z,17.8
2017-08-23T06:45:20.934Z,17.8
2017-08-23T06:46:23.824Z,17.8
2017-08-23T06:47:26.332Z,17.9
2017-08-23T06:48:28.834Z,17.9
2017-08-23T06:49:31.346Z,17.9
2017-08-23T06:50:33.854Z,18
2017-08-23T06:51:36.692Z,18
2017-08-23T06:52:39.194Z,18
2017-08-23T06:53:42.046Z,18.1
2017-08-23T06:54:44.549Z,18.1
2017-08-23T06:55:47.389Z,18.1
2017-08-23T06:56:49.917Z,18.2
2017-08-23T06:57:52.745Z,18.2
2017-08-23T06:58:55.590Z,18.2
2017-08-23T06:59:58.092Z,18.2
2017-08-23T07:01:00.621Z,18.2
2017-08-23T07:02:03.134Z,18.3
2017-08-23T07:03:05.974Z,18.3
2017-08-23T07:04:08.484Z,18.3
2017-08-23T07:05:11.347Z,18.4
2017-08-23T07:06:14.188Z,18.4
2017-08-23T07:07:16.687Z,18.5
2017-08-23T07:08:19.520Z,18.5
2017-08-23T07:09:22.398Z,18.6
2017-08-23T07:10:24.904Z,18.6
2017-08-23T07:11:27.396Z,18.7
2017-08-23T07:12:29.891Z,18.7
2017-08-23T07:13:32.395Z,18.8
2017-08-23T07:14:35.244Z,18.8
2017-08-23T07:15:38.100Z,18.9
2017-08-23T07:16:40.595Z,18.9
2017-08-23T07:17:43.461Z,19
2017-08-23T07:18:46.318Z,19.1
2017-08-23T07:19:49.156Z,19.2
2017-08-23T07:20:51.997Z,19.2
2017-08-23T07:21:54.838Z,19.3
2017-08-23T07:22:57.697Z,19.3
2017-08-23T07:24:00.216Z,19.4
2017-08-23T07:25:03.740Z,19.4
2017-08-23T07:26:06.260Z,19.5
2017-08-23T07:27:09.105Z,19.6
2017-08-23T07:28:12.152Z,19.7
2017-08-23T07:29:15.003Z,19.7
2017-08-23T07:30:18.101Z,19.8
2017-08-23T07:31:20.637Z,19.8
2017-08-23T07:32:23.330Z,19.9
2017-08-23T07:33:25.838Z,19.9
2017-08-23T07:34:28.345Z,20
2017-08-23T07:35:30.909Z,20
2017-08-23T07:36:34.082Z,20.1
2017-08-23T07:37:36.615Z,20.1
2017-08-23T07:38:40.539Z,20.2
2017-08-23T07:39:43.051Z,20.2
2017-08-23T07:40:45.580Z,20.2
2017-08-23T07:41:48.448Z,20.2
2017-08-23T07:42:50.955Z,20.3
2017-08-23T07:43:53.465Z,20.3
2017-08-23T07:44:56.312Z,20.4
2017-08-23T07:45:58.839Z,20.4
2017-08-23T07:47:01.350Z,20.4
2017-08-23T07:48:04.192Z,20.5
2017-08-23T07:49:06.707Z,20.5
2017-08-23T07:50:09.564Z,20.6
2017-08-23T07:51:12.410Z,20.7
2017-08-23T07:52:14.927Z,20.8
2017-08-23T07:53:17.460Z,20.8
2017-08-23T07:54:21.177Z,20.9
2017-08-23T07:55:23.692Z,21
2017-08-23T07:56:26.204Z,21.1
2017-08-23T07:57:29.055Z,21.1
2017-08-23T07:58:31.577Z,21.1
2017-08-23T07:59:34.093Z,21.2
2017-08-23T08:00:37.616Z,21.3
2017-08-23T08:01:40.116Z,21.2
2017-08-23T08:02:43.313Z,21.3
2017-08-23T08:03:46.174Z,21.3
2017-08-23T08:04:49.048Z,21.3
2017-08-23T08:05:51.894Z,21.3
2017-08-23T08:06:54.448Z,21.3
2017-08-23T08:07:56.955Z,21.4
2017-08-23T08:08:59.843Z,21.4
2017-08-23T08:10:03.040Z,21.4
2017-08-23T08:11:05.555Z,21.4
2017-08-23T08:12:08.065Z,21.5
2017-08-23T08:13:10.589Z,21.5
2017-08-23T08:14:13.438Z,21.6
2017-08-23T08:15:15.959Z,21.6
2017-08-23T08:16:18.801Z,21.7
2017-08-23T08:17:21.338Z,21.7
2017-08-23T08:18:23.865Z,21.8
2017-08-23T08:19:27.044Z,21.8
2017-08-23T08:20:29.554Z,21.9
2017-08-23T08:21:32.799Z,22
2017-08-23T08:22:35.440Z,22.1
2017-08-23T08:23:38.094Z,22.2
2017-08-23T08:24:40.637Z,22.2
2017-08-23T08:25:43.236Z,22.3
2017-08-23T08:26:46.410Z,22.3
2017-08-23T08:27:48.938Z,22.3
2017-08-23T08:28:51.792Z,22.4
2017-08-23T08:29:54.671Z,22.4
2017-08-23T08:30:57.184Z,22.5
2017-08-23T08:32:00.376Z,22.6
2017-08-23T08:33:03.894Z,22.7
2017-08-23T08:34:06.423Z,22.8
2017-08-23T08:35:09.273Z,22.9
2017-08-23T08:36:11.794Z,23
2017-08-23T08:37:14.309Z,23.1
2017-08-23T08:38:17.148Z,23.2
2017-08-23T08:39:20.012Z,23.3
2017-08-23T08:40:22.878Z,23.4
2017-08-23T08:41:25.447Z,23.5
2017-08-23T08:42:28.331Z,23.5
2017-08-23T08:43:31.274Z,23.6
2017-08-23T08:44:34.480Z,23.7
2017-08-23T08:45:37.044Z,23.8
2017-08-23T08:46:39.564Z,23.8
2017-08-23T08:47:42.414Z,23.9
2017-08-23T08:48:45.272Z,24
2017-08-23T08:49:48.125Z,24.1
2017-08-23T08:50:50.635Z,24.2
2017-08-23T08:51:53.154Z,24.4
2017-08-23T08:52:55.678Z,24.5
2017-08-23T08:53:58.534Z,24.7
2017-08-23T08:55:01.504Z,24.9
2017-08-23T08:56:04.130Z,25
2017-08-23T08:57:07.319Z,25.2
2017-08-23T08:58:09.846Z,25.4
2017-08-23T08:59:12.711Z,25.5
2017-08-23T09:00:15.602Z,25.7
2017-08-23T09:01:18.124Z,25.9
2017-08-23T09:02:21.002Z,26
2017-08-23T09:03:26.114Z,26.3
2017-08-23T09:04:29.361Z,26.4
2017-08-23T09:05:32.220Z,26.6
2017-08-23T09:06:34.720Z,26.7
2017-08-23T09:07:37.269Z,27
2017-08-23T09:08:39.787Z,27.2
2017-08-23T09:09:43.013Z,27.4
2017-08-23T09:10:46.580Z,27.5
2017-08-23T09:11:49.078Z,27.7
2017-08-23T09:12:51.605Z,27.8
2017-08-23T09:13:54.813Z,28
2017-08-23T09:14:57.327Z,28.2
2017-08-23T09:16:00.187Z,28.3
2017-08-23T09:17:03.054Z,28.5
2017-08-23T09:18:06.261Z,28.7
2017-08-23T09:19:09.151Z,29
2017-08-23T09:20:12.013Z,29.1
2017-08-23T09:21:14.544Z,29.3
2017-08-23T09:22:17.415Z,29.5
2017-08-23T09:23:19.945Z,29.7
2017-08-23T09:24:22.472Z,29.9
2017-08-23T09:25:25.016Z,30.1
2017-08-23T09:26:27.879Z,30.3
2017-08-23T09:27:30.745Z,30.4
2017-08-23T09:28:33.610Z,30.5
2017-08-23T09:29:36.490Z,30.7
2017-08-23T09:30:39.349Z,30.8
2017-08-23T09:31:43.091Z,30.9
2017-08-23T09:32:45.595Z,31
2017-08-23T09:33:48.455Z,31.2
2017-08-23T09:34:50.976Z,31.3
2017-08-23T09:35:53.870Z,31.4
2017-08-23T09:36:56.393Z,31.5
2017-08-23T09:37:58.924Z,31.7
2017-08-23T09:39:01.778Z,31.7
2017-08-23T09:40:04.664Z,31.9
2017-08-23T09:41:07.535Z,32
2017-08-23T09:42:11.104Z,32
2017-08-23T09:43:14.649Z,32
2017-08-23T09:44:17.185Z,31.9
2017-08-23T09:45:20.053Z,32
2017-08-23T09:46:22.976Z,32
2017-08-23T09:47:26.178Z,32.1
2017-08-23T09:48:28.723Z,32.1
2017-08-23T09:49:31.243Z,32.2
2017-08-23T09:50:33.762Z,32.3
2017-08-23T09:51:36.293Z,32.4
2017-08-23T09:52:39.164Z,32.5
2017-08-23T09:53:42.017Z,32.6
2017-08-23T09:54:44.545Z,32.7
2017-08-23T09:55:47.065Z,32.8
2017-08-23T09:56:49.583Z,32.9
2017-08-23T09:57:52.457Z,33.1
2017-08-23T09:58:55.337Z,33.2
2017-08-23T09:59:58.201Z,33.3
2017-08-23T10:01:01.063Z,33.4
2017-08-23T10:02:03.587Z,33.5
2017-08-23T10:03:06.115Z,33.6
2017-08-23T10:04:08.636Z,33.8
2017-08-23T10:05:11.543Z,33.8
2017-08-23T10:06:14.078Z,33.8
2017-08-23T10:07:16.604Z,33.8
2017-08-23T10:08:19.468Z,33.8
2017-08-23T10:09:22.015Z,33.9
2017-08-23T10:10:24.540Z,34
2017-08-23T10:11:27.071Z,34.1
2017-08-23T10:12:29.597Z,34.3
2017-08-23T10:13:32.791Z,34.3
2017-08-23T10:14:35.313Z,34.3
2017-08-23T10:15:37.846Z,34.3
2017-08-23T10:16:40.417Z,34.2
2017-08-23T10:17:43.295Z,34.1
2017-08-23T10:18:46.165Z,34.1
2017-08-23T10:19:48.678Z,34
2017-08-23T10:20:51.213Z,34.1
2017-08-23T10:21:54.083Z,34.1
2017-08-23T10:22:56.977Z,34.2
2017-08-23T10:23:59.837Z,34.3
2017-08-23T10:25:02.706Z,34.3
2017-08-23T10:26:05.560Z,34.4
2017-08-23T10:27:08.431Z,34.4
2017-08-23T10:28:11.313Z,34.5
2017-08-23T10:29:14.530Z,34.5
2017-08-23T10:30:17.386Z,34.5
2017-08-23T10:31:19.930Z,34.4
2017-08-23T10:32:22.838Z,34.4
2017-08-23T10:33:25.358Z,34.3
2017-08-23T10:34:27.893Z,34.2
2017-08-23T10:35:30.437Z,34
2017-08-23T10:36:32.960Z,33.9
2017-08-23T10:37:35.841Z,33.7
2017-08-23T10:38:38.361Z,33.5
2017-08-23T10:39:40.889Z,33.3
2017-08-23T10:40:43.778Z,33.2
2017-08-23T10:41:47.706Z,33.1
2017-08-23T10:42:50.227Z,33
2017-08-23T10:43:52.777Z,33.1
2017-08-23T10:44:55.672Z,33.1
2017-08-23T10:45:58.541Z,33.2
2017-08-23T10:47:01.101Z,33.2
2017-08-23T10:48:04.658Z,33.3
2017-08-23T10:49:07.506Z,33.4
2017-08-23T10:50:10.364Z,33.4
2017-08-23T10:51:12.897Z,33.5
2017-08-23T10:52:15.761Z,33.6
2017-08-23T10:53:18.278Z,33.6
2017-08-23T10:54:20.855Z,33.7
2017-08-23T10:55:23.364Z,33.8
2017-08-23T10:56:26.271Z,33.9
2017-08-23T10:57:28.800Z,34
2017-08-23T10:58:31.338Z,34
2017-08-23T10:59:34.888Z,34.1
2017-08-23T11:00:37.778Z,34.2
2017-08-23T11:01:40.986Z,34.2
2017-08-23T11:02:43.866Z,34.2
2017-08-23T11:03:46.391Z,34.2
2017-08-23T11:04:49.619Z,34.2
2017-08-23T11:05:52.484Z,34.2
2017-08-23T11:06:55.010Z,34.3
2017-08-23T11:07:57.868Z,34.3
2017-08-23T11:09:00.404Z,34.3
2017-08-23T11:10:03.932Z,34.3
2017-08-23T11:11:07.489Z,34.3
2017-08-23T11:12:10.355Z,34.3
2017-08-23T11:13:13.240Z,34.3
2017-08-23T11:14:16.482Z,34.4
2017-08-23T11:15:19.023Z,34.4
2017-08-23T11:16:21.898Z,34.5
2017-08-23T11:17:25.122Z,34.6
2017-08-23T11:18:27.684Z,34.7
2017-08-23T11:19:30.556Z,34.8
2017-08-23T11:20:33.402Z,34.8
2017-08-23T11:21:36.265Z,34.8
2017-08-23T11:22:39.829Z,34.9
2017-08-23T11:23:42.355Z,35
2017-08-23T11:24:44.918Z,35.1
2017-08-23T11:25:47.452Z,35.2
2017-08-23T11:26:50.322Z,35.2
2017-08-23T11:27:53.205Z,35.3
2017-08-23T11:28:55.730Z,35.3
2017-08-23T11:29:58.255Z,35.3
2017-08-23T11:31:01.149Z,35.3
2017-08-23T11:32:03.679Z,35.4
2017-08-23T11:33:06.601Z,35.4
2017-08-23T11:34:09.489Z,35.5
2017-08-23T11:35:12.351Z,35.6
2017-08-23T11:36:14.888Z,35.6
2017-08-23T11:37:17.429Z,35.6
2017-08-23T11:38:19.992Z,35.7
2017-08-23T11:39:22.519Z,35.8
2017-08-23T11:40:25.121Z,35.9
2017-08-23T11:41:27.651Z,35.9
2017-08-23T11:42:30.549Z,35.9
2017-08-23T11:43:33.433Z,36
2017-08-23T11:44:36.979Z,36
2017-08-23T11:45:39.865Z,36.1
2017-08-23T11:46:42.387Z,36.1
2017-08-23T11:47:45.251Z,36.1
2017-08-23T11:48:47.786Z,36.2
2017-08-23T11:49:50.331Z,36.2
2017-08-23T11:50:53.245Z,36.2
2017-08-23T11:51:55.801Z,36.2
2017-08-23T11:52:58.340Z,36.2
2017-08-23T11:54:01.500Z,36.3
2017-08-23T11:55:05.051Z,36.3
2017-08-23T11:56:07.584Z,36.2
2017-08-23T11:57:10.122Z,36.2
2017-08-23T11:58:13.351Z,36.1
2017-08-23T11:59:16.200Z,36.1
2017-08-23T12:00:18.737Z,36.1
2017-08-23T12:01:21.285Z,36.1
2017-08-23T12:02:24.147Z,36.1
2017-08-23T12:03:26.689Z,36.2
2017-08-23T12:04:29.542Z,36.2
2017-08-23T12:05:32.425Z,36.2
2017-08-23T12:06:34.959Z,36.3
2017-08-23T12:07:37.824Z,36.3
2017-08-23T12:08:40.345Z,36.3
2017-08-23T12:09:42.872Z,36.4
2017-08-23T12:10:45.752Z,36.4
2017-08-23T12:11:48.288Z,36.4
2017-08-23T12:12:50.823Z,36.4
2017-08-23T12:13:53.693Z,36.5
2017-08-23T12:14:56.553Z,36.5
2017-08-23T12:15:59.446Z,36.4
2017-08-23T12:17:03.011Z,36.4
2017-08-23T12:18:05.909Z,36.4
2017-08-23T12:19:08.448Z,36.4
2017-08-23T12:20:10.979Z,36.3
2017-08-23T12:21:13.510Z,36.2
2017-08-23T12:22:16.373Z,36.2
2017-08-23T12:23:18.902Z,36.2
2017-08-23T12:24:21.752Z,36.1
2017-08-23T12:25:24.312Z,36.2
2017-08-23T12:26:26.833Z,36.1
2017-08-23T12:27:29.358Z,36.1
2017-08-23T12:28:31.894Z,36.1
2017-08-23T12:29:34.411Z,36.1
2017-08-23T12:30:37.983Z,36.1
2017-08-23T12:31:41.192Z,36.2
2017-08-23T12:32:43.732Z,36.2
2017-08-23T12:33:46.265Z,36.2
2017-08-23T12:34:49.135Z,36.2
2017-08-23T12:35:52.346Z,36.3
2017-08-23T12:36:54.855Z,36.3
2017-08-23T12:37:57.390Z,36.3
2017-08-23T12:39:00.590Z,36.3
2017-08-23T12:40:03.451Z,36.3
2017-08-23T12:41:06.323Z,36.2
2017-08-23T12:42:08.844Z,36.2
2017-08-23T12:43:12.410Z,36.1
2017-08-23T12:44:15.640Z,36.2
2017-08-23T12:45:18.171Z,36.2
2017-08-23T12:46:20.694Z,36.1
2017-08-23T12:47:23.907Z,36.1
2017-08-23T12:48:26.787Z,36
2017-08-23T12:49:29.656Z,36
2017-08-23T12:50:32.893Z,36
2017-08-23T12:51:35.425Z,36
2017-08-23T12:52:37.959Z,36
2017-08-23T12:53:40.488Z,36
2017-08-23T12:54:43.021Z,36.1
2017-08-23T12:55:45.898Z,36.1
2017-08-23T12:56:48.449Z,36.2
2017-08-23T12:57:50.982Z,36.2
2017-08-23T12:58:54.550Z,36.2
2017-08-23T12:59:57.412Z,36.2
2017-08-23T13:00:59.949Z,36.1
2017-08-23T13:02:02.806Z,36
2017-08-23T13:03:06.376Z,36.1
2017-08-23T13:04:09.273Z,36.1
2017-08-23T13:05:12.492Z,36.2
2017-08-23T13:06:15.376Z,36.2
2017-08-23T13:07:18.253Z,36.3
2017-08-23T13:08:20.769Z,36.3
2017-08-23T13:09:23.301Z,36.4
2017-08-23T13:10:26.170Z,36.3
2017-08-23T13:11:29.045Z,36.3
2017-08-23T13:12:31.944Z,36.3
2017-08-23T13:13:34.806Z,36.2
2017-08-23T13:14:37.343Z,36.2
2017-08-23T13:15:40.214Z,36.2
2017-08-23T13:16:42.757Z,36.3
2017-08-23T13:17:45.299Z,36.3
2017-08-23T13:18:48.171Z,36.3
2017-08-23T13:19:50.706Z,36.4
2017-08-23T13:20:53.606Z,36.4
2017-08-23T13:21:56.166Z,36.4
2017-08-23T13:22:59.032Z,36.5
2017-08-23T13:24:02.241Z,36.5
2017-08-23T13:25:05.344Z,36.6
2017-08-23T13:26:08.269Z,36.6
2017-08-23T13:27:10.822Z,36.6
2017-08-23T13:28:14.105Z,36.7
2017-08-23T13:29:16.643Z,36.7
2017-08-23T13:30:19.190Z,36.7
2017-08-23T13:31:21.772Z,36.7
2017-08-23T13:32:24.663Z,36.8
2017-08-23T13:33:27.871Z,36.8
2017-08-23T13:34:30.441Z,36.9
2017-08-23T13:35:33.313Z,37
2017-08-23T13:36:35.839Z,37
2017-08-23T13:37:39.078Z,37.1
2017-08-23T13:38:41.957Z,37.1
2017-08-23T13:39:44.496Z,37.1
2017-08-23T13:40:47.709Z,37.2
2017-08-23T13:41:50.906Z,37.2
2017-08-23T13:42:53.439Z,37.3
2017-08-23T13:43:55.980Z,37.3
2017-08-23T13:44:58.865Z,37.3
2017-08-23T13:46:01.861Z,37.3
2017-08-23T13:47:05.075Z,37.4
2017-08-23T13:48:07.981Z,37.4
2017-08-23T13:49:10.529Z,37.4
2017-08-23T13:50:13.071Z,37.5
2017-08-23T13:51:15.606Z,37.6
2017-08-23T13:52:18.140Z,37.6
2017-08-23T13:53:20.706Z,37.6
2017-08-23T13:54:23.579Z,37.6
2017-08-23T13:55:26.110Z,37.7
2017-08-23T13:56:28.649Z,37.7
2017-08-23T13:57:31.172Z,37.7
2017-08-23T13:58:33.724Z,37.8
2017-08-23T13:59:36.598Z,37.8
2017-08-23T14:00:39.806Z,37.8
2017-08-23T14:01:42.751Z,37.9
2017-08-23T14:02:46.786Z,38
2017-08-23T14:03:49.674Z,38